Time;durP1;ratioP1;P1;durP2;ratioP2;P2;SDS_P1;SDS_P2;PMS_P1;PMS_P2;Temp;Humidity;BMP_temperature;BMP_pressure;BME280_temperature;BME280_humidity;BME280_pressure;Samples;Min_cycle;Max_cycle;Signal;HPM_P1;HPM_P2
2024/04/04 00:00:24;;;;;;;4.18;1.42;;;12.80;95.10;;;;;;4996778;28;20465;-73
2024/04/04 00:02:51;;;;;;;2.60;0.98;;;12.80;95.10;;;;;;4996656;28;20042;-73
2024/04/04 00:05:17;;;;;;;2.60;1.20;;;12.90;95.20;;;;;;4996823;28;20366;-73
2024/04/04 00:07:44;;;;;;;2.28;1.02;;;12.90;94.90;;;;;;4996757;28;20041;-72
2024/04/04 00:10:10;;;;;;;2.90;0.95;;;13.00;94.90;;;;;;4996363;28;20046;-72
2024/04/04 00:12:40;;;;;;;7.50;1.45;;;13.10;95.00;;;;;;4996537;28;20078;-72
2024/04/04 00:15:07;;;;;;;2.83;1.35;;;13.10;94.80;;;;;;4996601;28;20022;-72
2024/04/04 00:17:33;;;;;;;1.73;0.90;;;13.10;95.00;;;;;;4996555;28;20038;-73
2024/04/04 00:19:59;;;;;;;2.15;0.95;;;13.10;94.80;;;;;;4994964;28;20473;-73
2024/04/04 00:22:25;;;;;;;2.40;1.17;;;13.10;94.80;;;;;;4996195;28;20065;-72
2024/04/04 00:24:52;;;;;;;3.40;1.63;;;13.10;94.80;;;;;;4996396;28;20030;-73
2024/04/04 00:27:18;;;;;;;4.57;1.00;;;13.10;94.90;;;;;;4996188;28;20050;-73
2024/04/04 00:29:44;;;;;;;4.03;1.20;;;13.10;94.90;;;;;;4995941;28;20400;-73
2024/04/04 00:32:11;;;;;;;2.20;1.05;;;13.10;95.00;;;;;;4996084;28;20077;-72
2024/04/04 00:34:37;;;;;;;1.98;1.08;;;13.10;94.90;;;;;;4996162;28;20038;-72
2024/04/04 00:37:06;;;;;;;3.13;1.30;;;13.10;95.00;;;;;;4996223;28;20376;-73
2024/04/04 00:39:32;;;;;;;2.05;1.08;;;13.10;95.10;;;;;;4996133;28;20030;-73
2024/04/04 00:41:58;;;;;;;2.45;1.10;;;13.20;95.10;;;;;;4995550;28;20034;-73
2024/04/04 00:44:25;;;;;;;2.35;1.15;;;13.20;95.10;;;;;;4996020;28;20037;-72
2024/04/04 00:46:51;;;;;;;4.15;0.80;;;13.30;95.00;;;;;;4996220;28;20483;-73
2024/04/04 00:49:17;;;;;;;2.80;1.00;;;13.30;95.00;;;;;;4996003;28;20033;-72
2024/04/04 00:51:44;;;;;;;2.25;1.00;;;13.30;95.10;;;;;;4995883;28;20027;-72
2024/04/04 00:54:10;;;;;;;1.90;1.02;;;13.40;95.10;;;;;;4995729;28;20041;-72
2024/04/04 00:56:36;;;;;;;3.20;1.00;;;13.40;95.30;;;;;;4995923;28;20034;-73
2024/04/04 00:59:03;;;;;;;1.38;0.90;;;13.30;95.50;;;;;;4995658;28;20027;-73
2024/04/04 01:01:29;;;;;;;3.88;1.20;;;13.30;95.80;;;;;;4995537;28;20043;-72
2024/04/04 01:03:55;;;;;;;1.40;0.90;;;13.20;95.80;;;;;;4995306;28;20046;-72
2024/04/04 01:06:31;;;;;;;1.83;1.08;;;13.20;96.10;;;;;;4995168;28;20042;-72
2024/04/04 01:08:58;;;;;;;3.60;1.10;;;13.20;96.80;;;;;;4995435;28;20504;-73
2024/04/04 01:11:24;;;;;;;1.75;0.98;;;13.10;96.20;;;;;;4995325;28;20038;-73
2024/04/04 01:13:51;;;;;;;3.10;0.93;;;13.10;96.40;;;;;;4995193;28;20385;-73
2024/04/04 01:16:19;;;;;;;3.30;1.45;;;13.20;96.40;;;;;;4995486;28;20023;-73
2024/04/04 01:18:46;;;;;;;1.38;1.00;;;13.10;96.70;;;;;;4995487;28;20026;-73
2024/04/04 01:21:13;;;;;;;2.05;1.10;;;13.10;97.50;;;;;;4994920;28;20043;-73
2024/04/04 01:23:42;;;;;;;1.65;1.00;;;13.00;97.30;;;;;;4995124;28;20049;-72
2024/04/04 01:26:09;;;;;;;1.83;0.90;;;13.00;97.20;;;;;;4994939;28;20523;-73
2024/04/04 01:28:36;;;;;;;3.13;0.90;;;13.00;97.40;;;;;;4995228;28;20053;-73
2024/04/04 01:31:02;;;;;;;1.52;0.80;;;13.00;97.20;;;;;;4995225;28;20038;-72
2024/04/04 01:33:30;;;;;;;1.20;0.68;;;13.00;97.20;;;;;;4994742;28;20057;-73
2024/04/04 01:35:56;;;;;;;1.75;0.80;;;13.10;97.30;;;;;;4995583;28;20022;-73
2024/04/04 01:38:22;;;;;;;3.42;1.00;;;13.10;97.30;;;;;;4994413;28;20061;-73
2024/04/04 01:40:50;;;;;;;0.60;0.50;;;13.10;97.20;;;;;;4995060;28;20030;-73
2024/04/04 01:43:16;;;;;;;1.52;0.90;;;13.10;97.00;;;;;;4993632;28;20042;-72
2024/04/04 01:45:43;;;;;;;1.23;0.65;;;13.20;97.20;;;;;;4995058;28;20030;-73
2024/04/04 01:48:09;;;;;;;1.35;0.70;;;13.10;97.40;;;;;;4994704;28;20030;-73
2024/04/04 01:50:35;;;;;;;1.95;0.85;;;13.10;97.40;;;;;;4993686;28;20027;-72
2024/04/04 01:53:02;;;;;;;1.30;1.02;;;13.10;97.20;;;;;;4995082;28;20046;-73
2024/04/04 01:55:29;;;;;;;0.95;0.60;;;13.10;97.10;;;;;;4994896;28;20041;-73
2024/04/04 01:57:59;;;;;;;1.00;0.63;;;13.20;97.00;;;;;;4994744;28;20053;-73
2024/04/04 02:00:28;;;;;;;0.90;0.70;;;13.20;97.30;;;;;;4994714;28;20037;-73
2024/04/04 02:02:55;;;;;;;1.50;0.80;;;13.20;97.00;;;;;;4994671;28;20035;-73
2024/04/04 02:05:21;;;;;;;1.17;0.50;;;13.20;96.80;;;;;;4994468;28;20491;-73
2024/04/04 02:07:48;;;;;;;2.15;0.70;;;13.20;96.90;;;;;;4994649;28;20030;-74
2024/04/04 02:10:14;;;;;;;1.95;0.60;;;13.20;96.90;;;;;;4994378;28;20050;-73
2024/04/04 02:12:41;;;;;;;1.48;0.70;;;13.30;96.90;;;;;;4994342;28;20038;-73
2024/04/04 02:15:10;;;;;;;2.10;0.70;;;13.20;96.80;;;;;;4994425;28;20468;-73
2024/04/04 02:17:37;;;;;;;1.27;0.50;;;13.30;96.90;;;;;;4994224;28;20039;-73
2024/04/04 02:20:05;;;;;;;5.57;0.70;;;13.30;96.70;;;;;;4994546;28;20034;-74
2024/04/04 02:22:32;;;;;;;4.00;0.60;;;13.30;96.60;;;;;;4994156;28;20045;-73
2024/04/04 02:24:58;;;;;;;1.40;0.73;;;13.40;96.70;;;;;;4994424;28;20030;-73
2024/04/04 02:27:25;;;;;;;1.95;0.65;;;13.40;96.60;;;;;;4994131;28;20385;-73
2024/04/04 02:29:51;;;;;;;1.98;0.47;;;13.50;96.70;;;;;;4994170;28;20031;-73
2024/04/04 02:32:17;;;;;;;1.05;0.40;;;13.40;96.70;;;;;;4994291;28;20037;-73
2024/04/04 02:34:43;;;;;;;1.88;0.63;;;13.40;96.70;;;;;;4994236;28;20049;-73
2024/04/04 02:37:10;;;;;;;1.50;0.50;;;13.40;96.80;;;;;;4994390;28;20370;-73
2024/04/04 02:39:36;;;;;;;0.82;0.60;;;13.50;96.80;;;;;;4994413;28;20026;-73
2024/04/04 02:42:03;;;;;;;0.93;0.43;;;13.40;96.80;;;;;;4994103;28;20030;-73
2024/04/04 02:44:31;;;;;;;1.20;0.55;;;13.40;96.80;;;;;;4993854;28;20034;-73
2024/04/04 02:46:57;;;;;;;1.27;0.70;;;13.40;96.80;;;;;;4993862;28;20050;-73
2024/04/04 02:49:23;;;;;;;1.30;0.60;;;13.40;96.90;;;;;;4993968;28;20376;-73
2024/04/04 02:51:49;;;;;;;0.95;0.47;;;13.40;97.00;;;;;;4994096;28;20030;-73
2024/04/04 02:54:15;;;;;;;1.08;0.50;;;13.40;97.20;;;;;;4996721;28;20041;-73
2024/04/04 02:56:42;;;;;;;1.38;0.57;;;13.40;97.20;;;;;;4998109;28;20476;-73
2024/04/04 02:59:08;;;;;;;0.73;0.50;;;13.40;97.40;;;;;;4997779;28;20049;-73
2024/04/04 03:01:34;;;;;;;0.80;0.40;;;13.30;97.50;;;;;;4998192;28;20046;-73
2024/04/04 03:04:00;;;;;;;2.00;0.40;;;13.30;97.50;;;;;;4997971;28;20041;-73
2024/04/04 03:06:26;;;;;;;1.05;0.50;;;13.40;97.70;;;;;;4997912;28;20030;-73
2024/04/04 03:08:53;;;;;;;1.23;0.50;;;13.40;97.90;;;;;;4997383;28;20045;-73
2024/04/04 03:11:19;;;;;;;1.33;0.60;;;13.40;98.00;;;;;;4997927;28;20030;-73
2024/04/04 03:13:45;;;;;;;0.95;0.60;;;13.40;98.20;;;;;;4997345;28;20042;-73
2024/04/04 03:16:11;;;;;;;0.70;0.40;;;13.30;98.40;;;;;;4997790;28;20046;-73
2024/04/04 03:18:37;;;;;;;0.90;0.50;;;13.40;98.50;;;;;;4997643;28;20026;-73
2024/04/04 03:21:04;;;;;;;0.93;0.40;;;13.40;98.90;;;;;;4997749;28;20026;-73
2024/04/04 03:23:31;;;;;;;0.70;0.40;;;13.40;98.80;;;;;;4997628;28;20030;-73
2024/04/04 03:25:57;;;;;;;0.70;0.40;;;13.30;98.90;;;;;;4997626;28;20034;-74
2024/04/04 03:28:23;;;;;;;0.70;0.50;;;13.30;99.70;;;;;;4997288;28;20038;-73
2024/04/04 03:30:49;;;;;;;1.90;0.40;;;13.20;99.60;;;;;;4997251;28;20393;-73
2024/04/04 03:33:16;;;;;;;0.73;0.57;;;13.30;99.80;;;;;;4997322;28;20045;-73
2024/04/04 03:35:42;;;;;;;0.50;0.40;;;13.20;99.90;;;;;;4997374;28;20038;-73
2024/04/04 03:38:08;;;;;;;3.53;0.60;;;13.20;99.90;;;;;;4997330;28;20045;-73
2024/04/04 03:40:36;;;;;;;0.77;0.40;;;13.30;99.90;;;;;;4997106;28;20042;-73
2024/04/04 03:43:02;;;;;;;1.30;0.60;;;13.30;99.90;;;;;;4997102;28;20449;-73
2024/04/04 03:45:37;;;;;;;0.88;0.47;;;13.30;99.90;;;;;;4997152;28;20034;-73
2024/04/04 03:48:04;;;;;;;0.90;0.45;;;13.30;99.90;;;;;;4997094;28;20043;-73
2024/04/04 03:50:30;;;;;;;0.73;0.50;;;13.30;99.90;;;;;;4996876;28;20037;-73
2024/04/04 03:52:56;;;;;;;1.50;0.50;;;13.30;99.90;;;;;;4996888;28;20050;-74
2024/04/04 03:55:22;;;;;;;1.38;0.60;;;13.30;99.90;;;;;;4997121;28;20481;-74
2024/04/04 03:57:49;;;;;;;1.20;0.57;;;13.30;99.90;;;;;;4996913;28;20041;-73
2024/04/04 04:00:15;;;;;;;1.10;0.60;;;13.30;99.90;;;;;;4996876;28;20056;-73
2024/04/04 04:02:43;;;;;;;3.67;0.68;;;13.40;99.90;;;;;;4997039;28;20042;-73
2024/04/04 04:05:09;;;;;;;1.42;0.70;;;13.40;99.90;;;;;;4995504;28;20507;-73
2024/04/04 04:07:35;;;;;;;1.02;0.52;;;13.40;99.90;;;;;;4996852;28;20042;-73
2024/04/04 04:10:01;;;;;;;1.05;0.50;;;13.40;99.90;;;;;;4996462;28;20543;-73
2024/04/04 04:12:28;;;;;;;1.23;0.70;;;13.40;99.90;;;;;;4997123;28;20041;-73
2024/04/04 04:14:54;;;;;;;0.80;0.55;;;13.40;99.90;;;;;;4996767;28;20030;-73
2024/04/04 04:17:20;;;;;;;0.55;0.40;;;13.40;99.90;;;;;;4979038;28;20388;-73
2024/04/04 04:19:50;;;;;;;0.70;0.50;;;13.40;99.90;;;;;;4976014;28;20030;-73
2024/04/04 04:22:16;;;;;;;3.35;0.50;;;13.40;99.90;;;;;;4976454;28;20034;-73
2024/04/04 04:24:42;;;;;;;1.05;0.50;;;13.30;99.90;;;;;;4976707;28;20031;-73
2024/04/04 04:27:09;;;;;;;0.98;0.50;;;13.20;99.90;;;;;;4976379;28;20038;-73
2024/04/04 04:29:35;;;;;;;0.60;0.47;;;13.20;99.90;;;;;;4976469;28;20378;-73
2024/04/04 04:32:01;;;;;;;1.63;0.60;;;13.20;99.90;;;;;;4992236;28;20038;-73
2024/04/04 04:34:27;;;;;;;0.90;0.50;;;13.10;99.90;;;;;;4995009;28;20042;-73
2024/04/04 04:37:03;;;;;;;0.70;0.40;;;13.00;99.90;;;;;;4995600;28;20393;-73
2024/04/04 04:39:30;;;;;;;1.35;0.50;;;13.00;99.90;;;;;;4995582;28;20038;-73
2024/04/04 04:41:57;;;;;;;1.13;0.70;;;13.00;99.90;;;;;;4995626;28;20461;-73
2024/04/04 04:44:24;;;;;;;0.40;0.40;;;13.00;99.90;;;;;;4995636;28;20354;-73
2024/04/04 04:46:50;;;;;;;0.57;0.40;;;13.00;99.90;;;;;;4995262;28;20037;-73
2024/04/04 04:49:18;;;;;;;0.63;0.50;;;13.10;99.90;;;;;;4994882;28;20027;-72
2024/04/04 04:51:44;;;;;;;0.55;0.40;;;13.10;99.90;;;;;;4995240;28;20041;-74
2024/04/04 04:54:11;;;;;;;1.50;0.40;;;13.10;99.90;;;;;;4995183;28;20042;-74
2024/04/04 04:56:37;;;;;;;0.75;0.47;;;13.10;99.90;;;;;;4995535;28;20026;-73
2024/04/04 04:59:04;;;;;;;0.63;0.40;;;13.00;99.90;;;;;;4993532;28;20049;-73
2024/04/04 05:01:31;;;;;;;1.13;0.57;;;13.10;99.90;;;;;;4995184;28;20023;-74
2024/04/04 05:03:57;;;;;;;0.93;0.50;;;13.10;99.90;;;;;;4995060;28;20034;-74
2024/04/04 05:06:23;;;;;;;2.75;0.50;;;13.00;99.90;;;;;;4994860;28;20023;-74
2024/04/04 05:08:50;;;;;;;1.10;0.52;;;12.90;99.90;;;;;;5006584;28;20049;-73
2024/04/04 05:11:16;;;;;;;7.00;1.25;;;12.90;99.90;;;;;;5014651;28;20354;-73
2024/04/04 05:13:43;;;;;;;1.30;0.73;;;12.80;99.90;;;;;;5014571;28;20042;-73
2024/04/04 05:16:09;;;;;;;4.18;1.08;;;12.90;99.90;;;;;;5014228;28;20041;-74
2024/04/04 05:18:35;;;;;;;0.93;0.70;;;12.90;99.90;;;;;;5014643;28;20033;-73
2024/04/04 05:21:04;;;;;;;3.30;1.20;;;13.00;99.90;;;;;;5013444;28;20030;-73
2024/04/04 05:23:31;;;;;;;3.08;1.30;;;13.00;99.90;;;;;;5014417;28;20037;-73
2024/04/04 05:25:58;;;;;;;2.50;1.67;;;13.10;99.90;;;;;;5014242;28;20029;-73
2024/04/04 05:28:29;;;;;;;4.68;1.67;;;13.10;99.90;;;;;;5014080;28;20030;-73
2024/04/04 05:31:00;;;;;;;3.20;1.70;;;13.10;99.90;;;;;;5014263;28;20030;-75
2024/04/04 05:33:26;;;;;;;2.83;1.65;;;13.10;99.90;;;;;;5014073;28;20025;-73
2024/04/04 05:35:55;;;;;;;5.07;2.20;;;13.20;99.90;;;;;;5013626;28;20030;-72
2024/04/04 05:38:21;;;;;;;4.55;2.17;;;13.20;99.90;;;;;;5003531;28;20416;-73
2024/04/04 05:40:48;;;;;;;3.90;1.90;;;13.30;99.90;;;;;;4992626;28;20038;-70
2024/04/04 05:43:14;;;;;;;4.50;1.92;;;13.30;99.90;;;;;;4992782;28;20067;-72
2024/04/04 05:45:40;;;;;;;3.88;2.30;;;13.40;99.90;;;;;;4994332;28;20027;-72
2024/04/04 05:48:07;;;;;;;6.65;2.08;;;13.40;99.90;;;;;;4994550;28;20034;-73
2024/04/04 05:50:34;;;;;;;4.07;1.92;;;13.30;99.90;;;;;;4992139;28;20041;-73
2024/04/04 05:53:01;;;;;;;3.65;1.73;;;13.40;99.90;;;;;;4994191;28;20392;-73
2024/04/04 05:55:27;;;;;;;4.47;1.95;;;13.40;99.90;;;;;;4994042;28;20376;-73
2024/04/04 05:57:53;;;;;;;4.15;1.67;;;13.40;99.90;;;;;;4994074;28;20029;-71
2024/04/04 06:00:20;;;;;;;4.00;2.03;;;13.50;99.90;;;;;;4994022;28;20496;-73
2024/04/04 06:02:46;;;;;;;4.35;2.05;;;13.50;99.90;;;;;;4994824;28;20033;-73
2024/04/04 06:05:12;;;;;;;4.68;2.60;;;13.50;99.90;;;;;;5014262;28;20482;-74
2024/04/04 06:07:38;;;;;;;4.43;2.55;;;13.50;99.90;;;;;;5013939;28;20042;-73
2024/04/04 06:10:05;;;;;;;4.38;2.28;;;13.50;99.90;;;;;;5014024;28;20484;-73
2024/04/04 06:12:31;;;;;;;5.13;2.60;;;13.50;99.90;;;;;;5013967;28;20029;-73
2024/04/04 06:14:58;;;;;;;5.25;2.90;;;13.50;99.90;;;;;;5013957;28;20049;-72
2024/04/04 06:17:24;;;;;;;4.05;2.45;;;13.60;99.90;;;;;;5013674;28;20080;-73
2024/04/04 06:19:50;;;;;;;3.70;2.05;;;13.60;99.90;;;;;;5003321;28;20061;-72
2024/04/04 06:22:17;;;;;;;4.35;2.00;;;13.60;99.90;;;;;;4992066;28;20369;-73
2024/04/04 06:24:44;;;;;;;4.60;2.28;;;13.60;99.90;;;;;;4991694;28;20034;-73
2024/04/04 06:27:10;;;;;;;5.75;2.22;;;13.70;99.90;;;;;;4992677;28;20381;-73
2024/04/04 06:29:37;;;;;;;6.22;2.00;;;13.70;99.90;;;;;;4991301;28;20397;-72
2024/04/04 06:32:05;;;;;;;1.95;1.10;;;13.80;99.90;;;;;;4991991;28;20031;-73
2024/04/04 06:34:33;;;;;;;3.58;1.10;;;13.90;99.90;;;;;;4991983;28;20042;-72
2024/04/04 06:37:00;;;;;;;1.23;0.70;;;14.00;99.90;;;;;;4991959;28;20026;-72
2024/04/04 06:39:26;;;;;;;1.30;0.70;;;14.10;99.90;;;;;;4991991;28;20030;-73
2024/04/04 06:41:53;;;;;;;1.67;0.70;;;14.10;99.90;;;;;;4992266;28;20027;-72
2024/04/04 06:44:19;;;;;;;1.65;0.60;;;14.20;99.90;;;;;;4992271;28;20495;-73
2024/04/04 06:46:45;;;;;;;1.73;0.50;;;14.30;99.90;;;;;;4992405;28;20106;-73
2024/04/04 06:49:11;;;;;;;1.45;0.55;;;14.40;99.90;;;;;;4993464;28;20499;-73
2024/04/04 06:51:38;;;;;;;1.00;0.50;;;14.40;99.90;;;;;;4992621;28;20038;-73
2024/04/04 06:54:04;;;;;;;1.65;0.50;;;14.40;99.90;;;;;;4993660;28;20038;-73
2024/04/04 06:56:30;;;;;;;0.80;0.40;;;14.50;99.90;;;;;;4992231;28;20043;-73
2024/04/04 06:58:56;;;;;;;1.98;0.60;;;14.50;99.90;;;;;;4992581;28;20034;-73
2024/04/04 07:01:25;;;;;;;0.40;0.40;;;14.60;99.90;;;;;;4992806;28;20027;-73
2024/04/04 07:03:53;;;;;;;1.50;0.50;;;14.60;99.90;;;;;;4993206;28;20477;-73
2024/04/04 07:06:19;;;;;;;1.77;0.55;;;14.40;99.90;;;;;;4993451;28;20037;-73
2024/04/04 07:08:45;;;;;;;0.57;0.40;;;14.40;99.90;;;;;;4993418;28;20042;-73
2024/04/04 07:11:11;;;;;;;1.38;0.55;;;14.50;99.90;;;;;;4993822;28;20038;-73
2024/04/04 07:13:39;;;;;;;0.57;0.30;;;14.70;99.90;;;;;;4993850;28;20035;-73
2024/04/04 07:16:11;;;;;;;0.70;0.40;;;14.80;99.90;;;;;;4994112;28;20031;-73
2024/04/04 07:18:37;;;;;;;0.45;0.40;;;15.00;99.90;;;;;;4993932;28;20511;-73
2024/04/04 07:21:05;;;;;;;1.05;0.35;;;15.10;99.90;;;;;;4993641;28;20052;-73
2024/04/04 07:23:32;;;;;;;0.63;0.50;;;15.20;99.90;;;;;;4994464;28;20031;-74
2024/04/04 07:25:58;;;;;;;1.08;0.43;;;15.20;99.90;;;;;;4994327;28;20026;-74
2024/04/04 07:28:25;;;;;;;0.40;0.40;;;15.10;99.90;;;;;;4993774;28;20027;-73
2024/04/04 07:30:51;;;;;;;0.65;0.40;;;15.20;99.90;;;;;;4993768;28;20038;-73
2024/04/04 07:33:17;;;;;;;1.13;0.57;;;15.20;99.90;;;;;;4994260;28;20030;-73
2024/04/04 07:35:44;;;;;;;0.90;0.40;;;15.30;99.90;;;;;;4993557;28;20038;-73
2024/04/04 07:38:11;;;;;;;1.67;0.60;;;15.30;99.90;;;;;;4993906;28;20026;-73
2024/04/04 07:40:39;;;;;;;0.85;0.40;;;15.30;99.90;;;;;;4994999;28;20480;-73
2024/04/04 07:43:06;;;;;;;0.50;0.38;;;15.30;99.90;;;;;;4997383;28;20022;-73
2024/04/04 07:45:39;;;;;;;3.40;0.47;;;15.40;99.90;;;;;;4997361;28;20030;-73
2024/04/04 07:48:08;;;;;;;0.35;0.30;;;15.30;99.90;;;;;;4997324;28;20401;-73
2024/04/04 07:50:35;;;;;;;0.45;0.30;;;15.40;99.90;;;;;;4997578;28;20034;-73
2024/04/04 07:53:03;;;;;;;0.85;0.30;;;15.40;99.90;;;;;;4997151;28;20019;-73
2024/04/04 07:55:30;;;;;;;0.40;0.30;;;15.40;99.90;;;;;;4996942;28;20046;-73
2024/04/04 07:57:56;;;;;;;0.90;0.28;;;15.50;99.90;;;;;;4997105;28;20030;-73
2024/04/04 08:00:24;;;;;;;5.97;0.50;;;15.50;99.90;;;;;;4997021;28;20026;-73
2024/04/04 08:02:50;;;;;;;1.38;0.50;;;15.60;99.90;;;;;;4997320;28;20030;-73
2024/04/04 08:05:17;;;;;;;0.80;0.30;;;15.60;99.90;;;;;;4996798;28;20461;-73
2024/04/04 08:07:43;;;;;;;1.15;0.52;;;15.60;99.90;;;;;;4996653;28;20042;-73
2024/04/04 08:10:11;;;;;;;0.45;0.30;;;15.50;99.80;;;;;;4996943;28;20118;-73
2024/04/04 08:12:37;;;;;;;0.95;0.30;;;15.50;99.90;;;;;;4996739;28;20033;-73
2024/04/04 08:15:09;;;;;;;1.77;0.47;;;15.20;99.90;;;;;;4996348;28;20057;-73
2024/04/04 08:17:40;;;;;;;0.65;0.50;;;15.20;99.90;;;;;;4996922;28;20030;-73
2024/04/04 08:20:14;;;;;;;0.63;0.40;;;14.90;99.90;;;;;;4996839;28;20342;-73
2024/04/04 08:22:46;;;;;;;0.85;0.52;;;14.70;99.90;;;;;;4997067;28;20029;-73
2024/04/04 08:25:16;;;;;;;0.63;0.37;;;14.50;99.90;;;;;;4996293;28;20030;-73
2024/04/04 08:27:45;;;;;;;1.35;0.57;;;14.50;99.90;;;;;;4996563;28;20035;-73
2024/04/04 08:30:11;;;;;;;1.63;0.68;;;14.40;99.90;;;;;;4996221;28;20030;-73
2024/04/04 08:32:38;;;;;;;1.02;0.50;;;14.60;99.90;;;;;;4996622;28;20469;-73
2024/04/04 08:35:06;;;;;;;0.80;0.50;;;14.70;99.90;;;;;;4996146;28;20045;-73
2024/04/04 08:37:33;;;;;;;0.82;0.32;;;14.90;99.90;;;;;;4996191;28;20034;-73
2024/04/04 08:40:00;;;;;;;1.95;0.40;;;15.00;99.90;;;;;;4996127;28;20034;-72
2024/04/04 08:42:27;;;;;;;0.77;0.30;;;15.00;99.90;;;;;;4996141;28;20030;-73
2024/04/04 08:44:55;;;;;;;0.50;0.38;;;15.20;99.90;;;;;;4996491;28;20026;-73
2024/04/04 08:47:23;;;;;;;1.40;0.38;;;15.20;99.90;;;;;;4996059;28;20049;-73
2024/04/04 08:49:51;;;;;;;0.55;0.47;;;15.40;99.90;;;;;;4995586;28;20385;-73
2024/04/04 08:52:19;;;;;;;0.30;0.28;;;15.50;99.90;;;;;;4995804;28;20053;-73
2024/04/04 08:54:45;;;;;;;0.30;0.28;;;15.70;99.90;;;;;;4995806;28;20034;-73
2024/04/04 08:57:11;;;;;;;0.57;0.20;;;15.60;99.90;;;;;;4995775;28;20468;-73
2024/04/04 08:59:37;;;;;;;0.32;0.30;;;15.70;99.90;;;;;;4996400;28;20035;-73
2024/04/04 09:02:07;;;;;;;0.70;0.30;;;15.60;99.90;;;;;;4995364;28;20034;-73
2024/04/04 09:04:33;;;;;;;1.00;0.45;;;15.80;99.90;;;;;;4996238;28;20029;-73
2024/04/04 09:06:59;;;;;;;1.33;0.40;;;15.90;99.90;;;;;;4995560;28;20038;-73
2024/04/04 09:09:26;;;;;;;1.30;0.43;;;16.00;99.90;;;;;;4995452;28;20046;-73
2024/04/04 09:11:52;;;;;;;0.70;0.30;;;16.00;99.90;;;;;;4995746;28;20027;-73
2024/04/04 09:14:19;;;;;;;1.10;0.40;;;16.10;99.90;;;;;;4995485;28;20038;-73
2024/04/04 09:16:46;;;;;;;1.15;0.40;;;16.20;99.90;;;;;;4995623;28;20033;-73
2024/04/04 09:19:17;;;;;;;0.55;0.30;;;16.20;99.90;;;;;;4995326;28;20030;-73
2024/04/04 09:21:44;;;;;;;1.13;0.47;;;16.30;99.90;;;;;;4995481;28;20027;-73
2024/04/04 09:24:15;;;;;;;0.30;0.20;;;16.30;99.90;;;;;;4995120;28;20374;-73
2024/04/04 09:26:43;;;;;;;0.75;0.30;;;16.30;99.90;;;;;;4995885;28;20034;-73
2024/04/04 09:29:10;;;;;;;0.98;0.30;;;16.40;99.90;;;;;;4995387;28;20469;-72
2024/04/04 09:31:38;;;;;;;0.68;0.32;;;16.40;99.90;;;;;;4995528;28;20038;-73
2024/04/04 09:34:05;;;;;;;0.88;0.30;;;16.40;99.90;;;;;;4993384;28;20118;-73
2024/04/04 09:36:33;;;;;;;0.98;0.47;;;16.60;99.90;;;;;;4995143;28;20045;-73
2024/04/04 09:39:01;;;;;;;0.60;0.38;;;16.70;99.90;;;;;;4995250;28;20373;-73
2024/04/04 09:41:30;;;;;;;0.82;0.40;;;16.70;99.90;;;;;;4994729;28;20050;-73
2024/04/04 09:43:57;;;;;;;0.35;0.25;;;16.80;99.90;;;;;;4995131;28;20034;-73
2024/04/04 09:46:25;;;;;;;1.13;0.45;;;16.70;99.90;;;;;;4995026;28;20034;-73
2024/04/04 09:48:55;;;;;;;0.85;0.40;;;16.60;99.90;;;;;;4994964;28;20519;-73
2024/04/04 09:51:21;;;;;;;0.95;0.50;;;16.40;99.90;;;;;;4994786;28;20531;-73
2024/04/04 09:53:49;;;;;;;0.63;0.40;;;16.30;99.90;;;;;;4994707;28;20030;-74
2024/04/04 09:56:19;;;;;;;1.23;0.40;;;16.30;99.90;;;;;;4994916;28;20034;-73
2024/04/04 09:58:45;;;;;;;1.00;0.30;;;16.40;99.90;;;;;;4994765;28;20033;-74
2024/04/04 10:01:20;;;;;;;0.40;0.25;;;16.40;99.90;;;;;;4994741;28;20046;-73
2024/04/04 10:04:05;;;;;;;1.48;0.40;;;16.50;99.90;;;;;;4994201;28;20465;-73
2024/04/04 10:06:43;;;;;;;1.23;0.30;;;16.60;99.90;;;;;;4995020;28;20042;-74
2024/04/04 10:09:17;;;;;;;0.35;0.30;;;16.70;99.90;;;;;;4994401;28;20042;-73
2024/04/04 10:11:43;;;;;;;0.90;0.20;;;16.80;99.90;;;;;;4994994;28;20022;-73
2024/04/04 10:14:21;;;;;;;0.50;0.20;;;16.90;99.90;;;;;;4994364;28;20045;-74
2024/04/04 10:16:48;;;;;;;1.27;0.20;;;16.90;99.90;;;;;;4994692;28;20030;-73
2024/04/04 10:19:26;;;;;;;0.55;0.40;;;16.90;99.90;;;;;;4994572;28;20453;-73
2024/04/04 10:21:52;;;;;;;0.65;0.30;;;16.90;99.90;;;;;;4992944;28;20042;-73
2024/04/04 10:24:22;;;;;;;0.20;0.20;;;16.90;99.90;;;;;;4994431;28;20058;-73
2024/04/04 10:27:07;;;;;;;0.90;0.40;;;17.10;99.90;;;;;;4994240;28;20342;-73
2024/04/04 10:29:35;;;;;;;0.40;0.22;;;17.30;99.90;;;;;;4994524;28;20030;-73
2024/04/04 10:32:05;;;;;;;0.73;0.35;;;17.40;99.90;;;;;;4994270;28;20484;-73
2024/04/04 10:34:33;;;;;;;0.77;0.38;;;17.60;99.90;;;;;;4994489;28;20046;-73
2024/04/04 10:36:59;;;;;;;3.72;0.60;;;17.60;99.90;;;;;;4993700;28;20043;-74
2024/04/04 10:39:26;;;;;;;1.58;0.70;;;17.70;99.90;;;;;;4994359;28;20030;-73
2024/04/04 10:41:56;;;;;;;0.95;0.52;;;17.80;99.90;;;;;;4994234;28;20030;-73
2024/04/04 10:44:22;;;;;;;0.85;0.40;;;18.00;99.90;;;;;;4993998;28;20049;-74
2024/04/04 10:46:53;;;;;;;2.75;0.43;;;18.10;99.90;;;;;;4994286;28;20042;-74
2024/04/04 10:49:27;;;;;;;0.77;0.40;;;18.20;99.90;;;;;;4994700;28;20030;-73
2024/04/04 10:52:01;;;;;;;3.70;0.50;;;18.00;99.70;;;;;;4994403;28;20026;-73
2024/04/04 10:54:28;;;;;;;1.70;0.50;;;17.90;99.90;;;;;;4994007;28;20049;-73
2024/04/04 10:56:56;;;;;;;0.70;0.50;;;18.00;99.90;;;;;;4994322;28;20029;-72
2024/04/04 10:59:22;;;;;;;0.40;0.30;;;17.90;99.90;;;;;;4994549;28;20042;-73
2024/04/04 11:01:52;;;;;;;0.47;0.38;;;17.90;99.90;;;;;;4993031;28;20404;-73
2024/04/04 11:04:19;;;;;;;1.23;0.38;;;18.00;99.90;;;;;;4994253;28;20026;-73
2024/04/04 11:06:47;;;;;;;1.05;0.50;;;18.00;99.90;;;;;;4994272;28;20102;-73
2024/04/04 11:09:20;;;;;;;1.95;0.50;;;18.10;99.60;;;;;;4993634;28;20038;-73
2024/04/04 11:11:53;;;;;;;1.10;0.40;;;18.20;99.90;;;;;;4993817;28;20400;-73
2024/04/04 11:14:23;;;;;;;0.75;0.25;;;18.30;99.90;;;;;;4994951;28;20054;-73
2024/04/04 11:16:54;;;;;;;0.77;0.28;;;18.40;99.00;;;;;;4997772;28;20053;-73
2024/04/04 11:19:23;;;;;;;0.75;0.38;;;18.50;99.00;;;;;;4997922;28;20488;-73
2024/04/04 11:21:50;;;;;;;0.47;0.40;;;18.50;99.50;;;;;;4997648;28;20488;-73
2024/04/04 11:24:21;;;;;;;4.28;0.60;;;18.60;99.30;;;;;;4997819;28;20380;-73
2024/04/04 11:26:48;;;;;;;1.50;0.70;;;18.60;97.70;;;;;;4997263;28;20018;-73
2024/04/04 11:29:14;;;;;;;0.75;0.40;;;18.60;97.40;;;;;;4997619;28;20039;-73
2024/04/04 11:31:41;;;;;;;2.50;0.40;;;18.50;98.00;;;;;;4997423;28;20026;-73
2024/04/04 11:34:07;;;;;;;0.28;0.20;;;18.50;95.50;;;;;;4997440;28;20032;-73
2024/04/04 11:36:33;;;;;;;0.73;0.20;;;18.60;97.10;;;;;;4997689;28;20049;-73
2024/04/04 11:39:00;;;;;;;1.45;0.38;;;18.80;97.30;;;;;;4996631;28;20038;-73
2024/04/04 11:41:26;;;;;;;2.03;0.40;;;19.00;97.80;;;;;;4997281;28;20030;-73
2024/04/04 11:43:53;;;;;;;0.88;0.30;;;19.10;95.40;;;;;;4996783;28;20057;-73
2024/04/04 11:46:19;;;;;;;0.32;0.20;;;19.20;96.60;;;;;;4996815;28;20050;-73
2024/04/04 11:48:45;;;;;;;0.85;0.38;;;19.30;96.80;;;;;;4997054;28;20030;-73
2024/04/04 11:51:11;;;;;;;1.48;0.40;;;19.40;95.20;;;;;;4996319;28;20034;-73
2024/04/04 11:53:38;;;;;;;1.48;0.38;;;19.50;96.70;;;;;;4996674;28;20034;-73
2024/04/04 11:56:06;;;;;;;1.20;0.25;;;19.60;94.40;;;;;;4996588;28;20050;-73
2024/04/04 11:58:34;;;;;;;0.30;0.20;;;19.70;94.90;;;;;;4996937;28;20023;-73
2024/04/04 12:01:01;;;;;;;0.98;0.22;;;19.70;95.30;;;;;;4997012;28;20033;-73
2024/04/04 12:03:27;;;;;;;0.40;0.28;;;19.70;94.00;;;;;;4997315;28;20037;-73
2024/04/04 12:05:53;;;;;;;0.25;0.15;;;19.70;92.60;;;;;;4996783;28;20484;-73
2024/04/04 12:08:20;;;;;;;0.57;0.20;;;19.80;94.50;;;;;;4996879;28;20050;-74
2024/04/04 12:10:46;;;;;;;0.17;0.10;;;19.80;92.70;;;;;;4997044;28;20030;-74
2024/04/04 12:13:13;;;;;;;0.98;0.30;;;19.90;93.00;;;;;;4996818;28;20042;-74
2024/04/04 12:15:40;;;;;;;0.57;0.20;;;19.90;91.70;;;;;;4996518;28;20049;-73
2024/04/04 12:20:51;;;;;;;0.17;0.15;;;19.90;91.40;;;;;;4996480;28;20037;-73
2024/04/04 12:23:17;;;;;;;1.08;0.20;;;19.70;91.40;;;;;;4995522;28;20473;-72
2024/04/04 12:25:47;;;;;;;1.30;0.30;;;19.80;92.30;;;;;;4995587;28;20393;-73
2024/04/04 12:28:18;;;;;;;0.38;0.20;;;19.90;91.10;;;;;;4996284;28;20025;-73
2024/04/04 12:30:45;;;;;;;0.50;0.25;;;20.00;91.00;;;;;;4996413;28;20376;-73
2024/04/04 12:33:11;;;;;;;0.65;0.20;;;20.10;92.30;;;;;;4996468;28;20023;-73
2024/04/04 12:35:38;;;;;;;0.30;0.20;;;20.00;91.30;;;;;;4996369;28;20381;-73
2024/04/04 12:38:05;;;;;;;1.85;0.20;;;19.90;91.90;;;;;;4993520;28;20049;-73
2024/04/04 12:40:31;;;;;;;1.00;0.50;;;19.80;91.40;;;;;;4998096;28;20525;-73
2024/04/04 12:42:57;;;;;;;1.48;0.30;;;19.60;91.20;;;;;;5002438;28;20034;-73
2024/04/04 12:45:23;;;;;;;1.08;0.30;;;19.50;92.30;;;;;;5002685;28;20046;-73
2024/04/04 12:47:49;;;;;;;0.82;0.35;;;19.50;92.50;;;;;;5005383;28;20045;-73
2024/04/04 12:50:15;;;;;;;0.47;0.20;;;19.40;91.90;;;;;;5007157;28;20053;-73